LLSD

Details ICAO LLSD (SDV)
Name Sde Dov
Region Israel
Timezone Asia/Jerusalem (UTC+3.0)
Plans Departing 35
Arriving 49
Stats Elevation 43 ft / 13 m (AMSL)
Location 32.114661° 34.782238°
Runways 1
Magnetic Variation 4.733° E
Sunrise 2018-05-23 02:40:17 UTC / 2018-05-23 05:40:17 Local
Sunset 2018-05-23 16:37:48 UTC / 2018-05-23 19:37:48 Local
Advertisement - Login to hide

Runways

ID Width Length Bearing (true) Bearing (mag) Surface Threshold Offset Overrun Length
03 98 ft / 30 m 5,704 ft / 1,738 m 27.61° 22.88° Asphalt 341 ft / 104 m 0 ft / 0 m
21 98 ft / 30 m 5,704 ft / 1,738 m 207.61° 202.88° Asphalt 230 ft / 70 m 0 ft / 0 m

Map

Weather


0- 5 10 15 20 25 30 35+ Temperature / ° C

Clouds and Precipitation
Forecast for 2018-05-23 06:00 UTC. Updated an hour ago

Ground ~20,000 ft ~40,000 ft Winds

METAR

LLSD 230350Z VRB02KT CAVOK 25/19 Q1013

TAF

TAF LLSD 222319Z 2300/2324 24008KT CAVOK BECMG 2308/2310 30015KT BECMG 2315/2317 32005KT BECMG 2320/2322 20006KT 9999 SCT015 TX28/2311Z TN25/2303Z

Frequencies

Recorded 122.90 MHz ATIS
Tower 125.25 MHz TAMROOR TWR
Ground 121.05 MHz TAMROOR TAXI
Approach 125.25 MHz TAMROOR APP
Warning: Do not use this data for real-world aviation or navigation. No guarantee of current accuracy is given.